sensor_id;sensor_type;location;lat;lon;timestamp;P1;durP1;ratioP1;P2;durP2;ratioP2
53309;SDS011;39197;53.200;5.792;2023-11-21T00:01:05;11.27;;;5.72;;
53309;SDS011;39197;53.200;5.792;2023-11-21T00:03:34;10.32;;;5.57;;
53309;SDS011;39197;53.200;5.792;2023-11-21T00:05:59;13.07;;;5.97;;
53309;SDS011;39197;53.200;5.792;2023-11-21T00:08:25;14.13;;;5.75;;
53309;SDS011;39197;53.200;5.792;2023-11-21T00:10:52;19.60;;;8.20;;
53309;SDS011;39197;53.200;5.792;2023-11-21T00:13:18;14.20;;;6.50;;
53309;SDS011;39197;53.200;5.792;2023-11-21T00:15:43;16.92;;;6.82;;
53309;SDS011;39197;53.200;5.792;2023-11-21T00:18:09;12.98;;;4.93;;
53309;SDS011;39197;53.200;5.792;2023-11-21T00:20:35;12.07;;;5.20;;
53309;SDS011;39197;53.200;5.792;2023-11-21T00:23:00;11.38;;;4.63;;
53309;SDS011;39197;53.200;5.792;2023-11-21T00:25:27;14.65;;;6.22;;
53309;SDS011;39197;53.200;5.792;2023-11-21T00:27:53;16.75;;;6.38;;
53309;SDS011;39197;53.200;5.792;2023-11-21T00:30:19;14.95;;;6.93;;
53309;SDS011;39197;53.200;5.792;2023-11-21T00:32:46;18.17;;;8.00;;
53309;SDS011;39197;53.200;5.792;2023-11-21T00:35:11;34.75;;;16.35;;
53309;SDS011;39197;53.200;5.792;2023-11-21T00:37:37;21.25;;;8.25;;
53309;SDS011;39197;53.200;5.792;2023-11-21T00:40:04;26.45;;;10.82;;
53309;SDS011;39197;53.200;5.792;2023-11-21T00:42:31;17.15;;;7.13;;
53309;SDS011;39197;53.200;5.792;2023-11-21T00:44:58;17.85;;;6.45;;
53309;SDS011;39197;53.200;5.792;2023-11-21T00:47:24;15.85;;;7.57;;
53309;SDS011;39197;53.200;5.792;2023-11-21T00:49:50;12.98;;;5.80;;
53309;SDS011;39197;53.200;5.792;2023-11-21T00:52:16;24.77;;;11.20;;
53309;SDS011;39197;53.200;5.792;2023-11-21T00:54:41;36.25;;;15.48;;
53309;SDS011;39197;53.200;5.792;2023-11-21T00:57:07;31.95;;;14.07;;
53309;SDS011;39197;53.200;5.792;2023-11-21T00:59:33;17.85;;;7.95;;
53309;SDS011;39197;53.200;5.792;2023-11-21T01:02:00;16.63;;;6.40;;
53309;SDS011;39197;53.200;5.792;2023-11-21T01:04:26;16.90;;;7.18;;
53309;SDS011;39197;53.200;5.792;2023-11-21T01:06:52;17.20;;;5.18;;
53309;SDS011;39197;53.200;5.792;2023-11-21T01:09:18;13.20;;;5.50;;
53309;SDS011;39197;53.200;5.792;2023-11-21T01:11:44;17.83;;;6.40;;
53309;SDS011;39197;53.200;5.792;2023-11-21T01:14:09;20.80;;;9.50;;
53309;SDS011;39197;53.200;5.792;2023-11-21T01:16:35;33.15;;;13.43;;
53309;SDS011;39197;53.200;5.792;2023-11-21T01:19:01;27.88;;;12.75;;
53309;SDS011;39197;53.200;5.792;2023-11-21T01:21:27;26.35;;;10.68;;
53309;SDS011;39197;53.200;5.792;2023-11-21T01:23:53;29.95;;;12.90;;
53309;SDS011;39197;53.200;5.792;2023-11-21T01:26:20;30.38;;;11.70;;
53309;SDS011;39197;53.200;5.792;2023-11-21T01:28:46;27.23;;;10.50;;
53309;SDS011;39197;53.200;5.792;2023-11-21T01:31:14;24.15;;;11.88;;
53309;SDS011;39197;53.200;5.792;2023-11-21T01:33:40;47.60;;;17.80;;
53309;SDS011;39197;53.200;5.792;2023-11-21T01:36:06;27.52;;;11.48;;
53309;SDS011;39197;53.200;5.792;2023-11-21T01:38:31;30.88;;;14.15;;
53309;SDS011;39197;53.200;5.792;2023-11-21T01:40:57;25.65;;;11.85;;
53309;SDS011;39197;53.200;5.792;2023-11-21T01:43:25;31.77;;;11.45;;
53309;SDS011;39197;53.200;5.792;2023-11-21T01:45:51;25.52;;;10.60;;
53309;SDS011;39197;53.200;5.792;2023-11-21T01:48:22;26.25;;;11.35;;
53309;SDS011;39197;53.200;5.792;2023-11-21T01:50:48;31.13;;;12.48;;
53309;SDS011;39197;53.200;5.792;2023-11-21T01:53:14;24.80;;;10.38;;
53309;SDS011;39197;53.200;5.792;2023-11-21T01:55:41;24.17;;;9.75;;
53309;SDS011;39197;53.200;5.792;2023-11-21T01:58:08;26.73;;;8.95;;
53309;SDS011;39197;53.200;5.792;2023-11-21T02:00:35;25.00;;;9.07;;
53309;SDS011;39197;53.200;5.792;2023-11-21T02:03:01;26.42;;;9.93;;
53309;SDS011;39197;53.200;5.792;2023-11-21T02:05:27;26.33;;;8.48;;
53309;SDS011;39197;53.200;5.792;2023-11-21T02:07:54;23.17;;;6.32;;
53309;SDS011;39197;53.200;5.792;2023-11-21T02:10:21;18.35;;;5.35;;
53309;SDS011;39197;53.200;5.792;2023-11-21T02:12:50;28.23;;;7.28;;
53309;SDS011;39197;53.200;5.792;2023-11-21T02:15:16;25.33;;;6.50;;
53309;SDS011;39197;53.200;5.792;2023-11-21T02:17:45;29.63;;;8.73;;
53309;SDS011;39197;53.200;5.792;2023-11-21T02:20:12;28.52;;;8.85;;
53309;SDS011;39197;53.200;5.792;2023-11-21T02:22:42;22.10;;;7.15;;
53309;SDS011;39197;53.200;5.792;2023-11-21T02:25:30;28.05;;;9.43;;
53309;SDS011;39197;53.200;5.792;2023-11-21T02:27:57;28.98;;;5.88;;
53309;SDS011;39197;53.200;5.792;2023-11-21T02:30:27;27.65;;;8.27;;
53309;SDS011;39197;53.200;5.792;2023-11-21T02:32:53;31.38;;;9.77;;
53309;SDS011;39197;53.200;5.792;2023-11-21T02:35:22;37.13;;;15.95;;
53309;SDS011;39197;53.200;5.792;2023-11-21T02:37:49;30.20;;;9.27;;
53309;SDS011;39197;53.200;5.792;2023-11-21T02:40:15;30.50;;;8.98;;
53309;SDS011;39197;53.200;5.792;2023-11-21T02:42:45;33.00;;;7.53;;
53309;SDS011;39197;53.200;5.792;2023-11-21T02:45:13;22.33;;;6.68;;
53309;SDS011;39197;53.200;5.792;2023-11-21T02:47:41;21.75;;;5.85;;
53309;SDS011;39197;53.200;5.792;2023-11-21T02:50:08;25.92;;;6.82;;
53309;SDS011;39197;53.200;5.792;2023-11-21T02:52:34;21.15;;;6.47;;
53309;SDS011;39197;53.200;5.792;2023-11-21T02:55:03;19.58;;;6.07;;
53309;SDS011;39197;53.200;5.792;2023-11-21T02:57:29;24.45;;;5.13;;
53309;SDS011;39197;53.200;5.792;2023-11-21T02:59:55;24.88;;;5.60;;
53309;SDS011;39197;53.200;5.792;2023-11-21T03:02:21;20.25;;;4.88;;
53309;SDS011;39197;53.200;5.792;2023-11-21T03:04:47;19.13;;;3.90;;
53309;SDS011;39197;53.200;5.792;2023-11-21T03:07:14;22.50;;;4.22;;
53309;SDS011;39197;53.200;5.792;2023-11-21T03:09:40;25.20;;;7.05;;
53309;SDS011;39197;53.200;5.792;2023-11-21T03:12:05;21.05;;;4.10;;
53309;SDS011;39197;53.200;5.792;2023-11-21T03:14:31;18.45;;;4.00;;
53309;SDS011;39197;53.200;5.792;2023-11-21T03:16:57;22.45;;;5.78;;
53309;SDS011;39197;53.200;5.792;2023-11-21T03:19:22;12.60;;;2.83;;
53309;SDS011;39197;53.200;5.792;2023-11-21T03:21:48;9.35;;;3.08;;
53309;SDS011;39197;53.200;5.792;2023-11-21T03:24:14;20.77;;;3.78;;
53309;SDS011;39197;53.200;5.792;2023-11-21T03:26:44;7.97;;;2.20;;
53309;SDS011;39197;53.200;5.792;2023-11-21T03:29:10;10.68;;;3.03;;
53309;SDS011;39197;53.200;5.792;2023-11-21T03:31:35;8.40;;;3.17;;
53309;SDS011;39197;53.200;5.792;2023-11-21T03:34:01;10.35;;;2.80;;
53309;SDS011;39197;53.200;5.792;2023-11-21T03:36:27;11.52;;;2.67;;
53309;SDS011;39197;53.200;5.792;2023-11-21T03:38:52;8.88;;;2.80;;
53309;SDS011;39197;53.200;5.792;2023-11-21T03:41:18;9.52;;;2.95;;
53309;SDS011;39197;53.200;5.792;2023-11-21T03:43:44;12.73;;;2.97;;
53309;SDS011;39197;53.200;5.792;2023-11-21T03:46:09;6.85;;;2.47;;
53309;SDS011;39197;53.200;5.792;2023-11-21T03:48:35;8.82;;;3.55;;
53309;SDS011;39197;53.200;5.792;2023-11-21T03:51:01;9.23;;;2.75;;
53309;SDS011;39197;53.200;5.792;2023-11-21T03:53:26;14.13;;;3.90;;
53309;SDS011;39197;53.200;5.792;2023-11-21T03:55:52;13.93;;;4.38;;
53309;SDS011;39197;53.200;5.792;2023-11-21T03:58:17;17.35;;;4.75;;
53309;SDS011;39197;53.200;5.792;2023-11-21T04:00:43;18.23;;;4.63;;
53309;SDS011;39197;53.200;5.792;2023-11-21T04:03:08;11.93;;;5.00;;
53309;SDS011;39197;53.200;5.792;2023-11-21T04:05:34;17.85;;;5.00;;
53309;SDS011;39197;53.200;5.792;2023-11-21T04:07:59;19.90;;;6.10;;
53309;SDS011;39197;53.200;5.792;2023-11-21T04:10:25;19.17;;;5.63;;
53309;SDS011;39197;53.200;5.792;2023-11-21T04:12:51;18.88;;;6.07;;
53309;SDS011;39197;53.200;5.792;2023-11-21T04:15:17;16.52;;;6.90;;
53309;SDS011;39197;53.200;5.792;2023-11-21T04:17:42;23.48;;;7.50;;
53309;SDS011;39197;53.200;5.792;2023-11-21T04:20:08;29.25;;;10.15;;
53309;SDS011;39197;53.200;5.792;2023-11-21T04:22:38;19.20;;;7.15;;
53309;SDS011;39197;53.200;5.792;2023-11-21T04:25:11;22.52;;;7.30;;
53309;SDS011;39197;53.200;5.792;2023-11-21T04:27:39;22.27;;;9.23;;
53309;SDS011;39197;53.200;5.792;2023-11-21T04:30:06;19.17;;;8.02;;
53309;SDS011;39197;53.200;5.792;2023-11-21T04:32:32;18.35;;;8.93;;
53309;SDS011;39197;53.200;5.792;2023-11-21T04:34:58;22.88;;;8.60;;
53309;SDS011;39197;53.200;5.792;2023-11-21T04:37:24;17.90;;;8.57;;
53309;SDS011;39197;53.200;5.792;2023-11-21T04:39:49;22.65;;;9.02;;
53309;SDS011;39197;53.200;5.792;2023-11-21T04:42:15;26.33;;;9.52;;
53309;SDS011;39197;53.200;5.792;2023-11-21T04:44:40;17.55;;;8.77;;
53309;SDS011;39197;53.200;5.792;2023-11-21T04:47:06;18.33;;;9.77;;
53309;SDS011;39197;53.200;5.792;2023-11-21T04:49:32;16.58;;;8.50;;
53309;SDS011;39197;53.200;5.792;2023-11-21T04:51:58;22.40;;;9.80;;
53309;SDS011;39197;53.200;5.792;2023-11-21T04:54:24;15.35;;;8.15;;
53309;SDS011;39197;53.200;5.792;2023-11-21T04:56:50;15.60;;;8.52;;
53309;SDS011;39197;53.200;5.792;2023-11-21T04:59:15;18.70;;;9.88;;
53309;SDS011;39197;53.200;5.792;2023-11-21T05:01:41;26.45;;;12.07;;
53309;SDS011;39197;53.200;5.792;2023-11-21T05:04:06;26.65;;;11.73;;
53309;SDS011;39197;53.200;5.792;2023-11-21T05:06:33;27.83;;;11.73;;
53309;SDS011;39197;53.200;5.792;2023-11-21T05:08:59;22.77;;;10.52;;
53309;SDS011;39197;53.200;5.792;2023-11-21T05:11:25;21.10;;;10.15;;
53309;SDS011;39197;53.200;5.792;2023-11-21T05:13:51;25.23;;;9.80;;
53309;SDS011;39197;53.200;5.792;2023-11-21T05:16:18;23.30;;;10.60;;
53309;SDS011;39197;53.200;5.792;2023-11-21T05:18:44;25.60;;;11.18;;
53309;SDS011;39197;53.200;5.792;2023-11-21T05:21:10;19.45;;;9.82;;
53309;SDS011;39197;53.200;5.792;2023-11-21T05:23:36;21.42;;;11.55;;
53309;SDS011;39197;53.200;5.792;2023-11-21T05:26:02;24.90;;;11.85;;
53309;SDS011;39197;53.200;5.792;2023-11-21T05:28:28;26.40;;;13.27;;
53309;SDS011;39197;53.200;5.792;2023-11-21T05:30:54;31.98;;;13.65;;
53309;SDS011;39197;53.200;5.792;2023-11-21T05:33:20;33.30;;;14.13;;
53309;SDS011;39197;53.200;5.792;2023-11-21T05:35:45;30.08;;;14.52;;
53309;SDS011;39197;53.200;5.792;2023-11-21T05:38:13;31.58;;;15.30;;
53309;SDS011;39197;53.200;5.792;2023-11-21T05:40:39;30.55;;;15.43;;
53309;SDS011;39197;53.200;5.792;2023-11-21T05:43:05;31.63;;;15.40;;
53309;SDS011;39197;53.200;5.792;2023-11-21T05:45:31;31.75;;;14.73;;
53309;SDS011;39197;53.200;5.792;2023-11-21T05:47:58;32.55;;;15.18;;
53309;SDS011;39197;53.200;5.792;2023-11-21T05:50:23;34.15;;;15.45;;
53309;SDS011;39197;53.200;5.792;2023-11-21T05:52:49;34.25;;;15.75;;
53309;SDS011;39197;53.200;5.792;2023-11-21T05:55:15;40.97;;;17.35;;
53309;SDS011;39197;53.200;5.792;2023-11-21T05:57:41;39.42;;;16.80;;
53309;SDS011;39197;53.200;5.792;2023-11-21T06:00:09;39.35;;;18.52;;
53309;SDS011;39197;53.200;5.792;2023-11-21T06:02:50;40.53;;;18.08;;
53309;SDS011;39197;53.200;5.792;2023-11-21T06:05:22;35.58;;;17.60;;
53309;SDS011;39197;53.200;5.792;2023-11-21T06:07:52;40.47;;;19.00;;
53309;SDS011;39197;53.200;5.792;2023-11-21T06:10:22;38.55;;;17.08;;
53309;SDS011;39197;53.200;5.792;2023-11-21T06:12:48;39.55;;;17.52;;
53309;SDS011;39197;53.200;5.792;2023-11-21T06:15:14;31.50;;;15.63;;
53309;SDS011;39197;53.200;5.792;2023-11-21T06:17:40;29.63;;;14.13;;
53309;SDS011;39197;53.200;5.792;2023-11-21T06:20:07;31.60;;;14.68;;
53309;SDS011;39197;53.200;5.792;2023-11-21T06:22:37;28.73;;;14.35;;
53309;SDS011;39197;53.200;5.792;2023-11-21T06:25:04;26.02;;;14.55;;
53309;SDS011;39197;53.200;5.792;2023-11-21T06:27:34;28.70;;;14.40;;
53309;SDS011;39197;53.200;5.792;2023-11-21T06:32:29;32.30;;;16.13;;
53309;SDS011;39197;53.200;5.792;2023-11-21T06:34:55;35.45;;;16.83;;
53309;SDS011;39197;53.200;5.792;2023-11-21T06:37:28;41.22;;;17.23;;
53309;SDS011;39197;53.200;5.792;2023-11-21T06:39:54;33.63;;;16.30;;
53309;SDS011;39197;53.200;5.792;2023-11-21T06:42:21;33.80;;;16.25;;
53309;SDS011;39197;53.200;5.792;2023-11-21T06:44:47;39.78;;;17.38;;
53309;SDS011;39197;53.200;5.792;2023-11-21T06:47:13;34.58;;;15.68;;
53309;SDS011;39197;53.200;5.792;2023-11-21T06:49:40;27.98;;;14.82;;
53309;SDS011;39197;53.200;5.792;2023-11-21T06:52:07;32.03;;;15.90;;
53309;SDS011;39197;53.200;5.792;2023-11-21T06:54:33;27.55;;;14.82;;
53309;SDS011;39197;53.200;5.792;2023-11-21T06:56:59;28.08;;;15.02;;
53309;SDS011;39197;53.200;5.792;2023-11-21T06:59:25;28.42;;;15.43;;
53309;SDS011;39197;53.200;5.792;2023-11-21T07:01:51;27.10;;;15.23;;
53309;SDS011;39197;53.200;5.792;2023-11-21T07:04:16;28.30;;;15.77;;
53309;SDS011;39197;53.200;5.792;2023-11-21T07:06:43;29.73;;;15.93;;
53309;SDS011;39197;53.200;5.792;2023-11-21T07:09:09;29.77;;;15.65;;
53309;SDS011;39197;53.200;5.792;2023-11-21T07:11:36;33.00;;;17.38;;
53309;SDS011;39197;53.200;5.792;2023-11-21T07:14:03;33.13;;;17.63;;
53309;SDS011;39197;53.200;5.792;2023-11-21T07:16:35;30.45;;;17.48;;
53309;SDS011;39197;53.200;5.792;2023-11-21T07:19:04;28.55;;;17.90;;
53309;SDS011;39197;53.200;5.792;2023-11-21T07:21:36;29.92;;;17.67;;
53309;SDS011;39197;53.200;5.792;2023-11-21T07:24:02;27.60;;;17.65;;
53309;SDS011;39197;53.200;5.792;2023-11-21T07:26:28;26.02;;;16.83;;
53309;SDS011;39197;53.200;5.792;2023-11-21T07:28:54;22.13;;;14.85;;
53309;SDS011;39197;53.200;5.792;2023-11-21T07:31:21;20.25;;;14.02;;
53309;SDS011;39197;53.200;5.792;2023-11-21T07:33:47;21.35;;;13.85;;
53309;SDS011;39197;53.200;5.792;2023-11-21T07:36:13;22.30;;;13.40;;
53309;SDS011;39197;53.200;5.792;2023-11-21T07:38:40;20.30;;;13.20;;
53309;SDS011;39197;53.200;5.792;2023-11-21T07:41:06;18.48;;;13.32;;
53309;SDS011;39197;53.200;5.792;2023-11-21T07:43:34;19.13;;;13.40;;
53309;SDS011;39197;53.200;5.792;2023-11-21T07:46:03;21.45;;;13.63;;
53309;SDS011;39197;53.200;5.792;2023-11-21T07:48:30;24.33;;;13.93;;
53309;SDS011;39197;53.200;5.792;2023-11-21T07:50:56;21.30;;;14.85;;
53309;SDS011;39197;53.200;5.792;2023-11-21T07:53:23;22.05;;;14.50;;
53309;SDS011;39197;53.200;5.792;2023-11-21T07:55:50;20.60;;;14.45;;
53309;SDS011;39197;53.200;5.792;2023-11-21T07:58:17;22.58;;;14.93;;
53309;SDS011;39197;53.200;5.792;2023-11-21T08:00:43;22.42;;;13.45;;
53309;SDS011;39197;53.200;5.792;2023-11-21T08:03:09;24.30;;;13.63;;
53309;SDS011;39197;53.200;5.792;2023-11-21T08:05:35;21.95;;;13.95;;
53309;SDS011;39197;53.200;5.792;2023-11-21T08:08:00;17.15;;;12.82;;
53309;SDS011;39197;53.200;5.792;2023-11-21T08:10:26;20.00;;;13.23;;
53309;SDS011;39197;53.200;5.792;2023-11-21T08:12:51;17.85;;;12.95;;
53309;SDS011;39197;53.200;5.792;2023-11-21T08:15:18;20.60;;;13.63;;
53309;SDS011;39197;53.200;5.792;2023-11-21T08:17:44;18.25;;;12.23;;
53309;SDS011;39197;53.200;5.792;2023-11-21T08:20:11;18.75;;;13.75;;
53309;SDS011;39197;53.200;5.792;2023-11-21T08:22:37;20.17;;;12.48;;
53309;SDS011;39197;53.200;5.792;2023-11-21T08:25:06;18.33;;;12.27;;
53309;SDS011;39197;53.200;5.792;2023-11-21T08:27:33;19.75;;;11.45;;
53309;SDS011;39197;53.200;5.792;2023-11-21T08:29:59;20.73;;;12.55;;
53309;SDS011;39197;53.200;5.792;2023-11-21T08:32:25;17.50;;;12.23;;
53309;SDS011;39197;53.200;5.792;2023-11-21T08:34:51;18.25;;;12.43;;
53309;SDS011;39197;53.200;5.792;2023-11-21T08:37:17;16.77;;;11.60;;
53309;SDS011;39197;53.200;5.792;2023-11-21T08:39:46;14.38;;;10.43;;
53309;SDS011;39197;53.200;5.792;2023-11-21T08:42:13;17.10;;;10.75;;
53309;SDS011;39197;53.200;5.792;2023-11-21T08:44:39;14.00;;;9.95;;
53309;SDS011;39197;53.200;5.792;2023-11-21T08:47:05;16.75;;;10.40;;
53309;SDS011;39197;53.200;5.792;2023-11-21T08:49:31;17.50;;;9.60;;
53309;SDS011;39197;53.200;5.792;2023-11-21T08:51:57;14.90;;;8.60;;
53309;SDS011;39197;53.200;5.792;2023-11-21T08:54:24;13.70;;;9.35;;
53309;SDS011;39197;53.200;5.792;2023-11-21T08:56:54;14.55;;;9.55;;
53309;SDS011;39197;53.200;5.792;2023-11-21T08:59:20;13.73;;;8.98;;
53309;SDS011;39197;53.200;5.792;2023-11-21T09:01:46;13.48;;;8.65;;
53309;SDS011;39197;53.200;5.792;2023-11-21T09:04:12;9.88;;;8.50;;
53309;SDS011;39197;53.200;5.792;2023-11-21T09:06:39;9.35;;;7.45;;
53309;SDS011;39197;53.200;5.792;2023-11-21T09:09:05;10.30;;;7.25;;
53309;SDS011;39197;53.200;5.792;2023-11-21T09:11:31;9.52;;;6.60;;
53309;SDS011;39197;53.200;5.792;2023-11-21T09:13:59;9.57;;;6.88;;
53309;SDS011;39197;53.200;5.792;2023-11-21T09:16:25;9.07;;;6.15;;
53309;SDS011;39197;53.200;5.792;2023-11-21T09:18:51;9.82;;;5.90;;
53309;SDS011;39197;53.200;5.792;2023-11-21T09:21:16;8.82;;;5.65;;
53309;SDS011;39197;53.200;5.792;2023-11-21T09:23:45;8.15;;;6.13;;
53309;SDS011;39197;53.200;5.792;2023-11-21T09:26:11;10.55;;;6.45;;
53309;SDS011;39197;53.200;5.792;2023-11-21T09:28:38;10.23;;;8.02;;
53309;SDS011;39197;53.200;5.792;2023-11-21T09:31:04;9.48;;;6.78;;
53309;SDS011;39197;53.200;5.792;2023-11-21T09:33:30;10.07;;;7.03;;
53309;SDS011;39197;53.200;5.792;2023-11-21T09:35:56;9.80;;;8.10;;
53309;SDS011;39197;53.200;5.792;2023-11-21T09:38:22;10.00;;;8.00;;
53309;SDS011;39197;53.200;5.792;2023-11-21T09:40:48;13.00;;;9.18;;
53309;SDS011;39197;53.200;5.792;2023-11-21T09:43:18;11.98;;;9.98;;
53309;SDS011;39197;53.200;5.792;2023-11-21T09:45:48;13.05;;;9.68;;
53309;SDS011;39197;53.200;5.792;2023-11-21T09:48:21;10.73;;;9.07;;
53309;SDS011;39197;53.200;5.792;2023-11-21T09:50:49;11.38;;;8.65;;
53309;SDS011;39197;53.200;5.792;2023-11-21T09:53:19;10.27;;;7.75;;
53309;SDS011;39197;53.200;5.792;2023-11-21T09:55:47;7.65;;;6.78;;
53309;SDS011;39197;53.200;5.792;2023-11-21T09:58:14;8.40;;;7.20;;
53309;SDS011;39197;53.200;5.792;2023-11-21T10:00:44;11.27;;;9.07;;
53309;SDS011;39197;53.200;5.792;2023-11-21T10:03:11;10.20;;;7.40;;
53309;SDS011;39197;53.200;5.792;2023-11-21T10:05:37;9.02;;;6.82;;
53309;SDS011;39197;53.200;5.792;2023-11-21T10:08:04;8.45;;;6.90;;
53309;SDS011;39197;53.200;5.792;2023-11-21T10:10:33;9.70;;;7.10;;
53309;SDS011;39197;53.200;5.792;2023-11-21T10:13:01;9.95;;;7.13;;
53309;SDS011;39197;53.200;5.792;2023-11-21T10:15:31;10.25;;;7.68;;
53309;SDS011;39197;53.200;5.792;2023-11-21T10:17:59;9.82;;;6.55;;
53309;SDS011;39197;53.200;5.792;2023-11-21T10:20:32;13.00;;;8.48;;
53309;SDS011;39197;53.200;5.792;2023-11-21T10:23:03;9.60;;;6.97;;
53309;SDS011;39197;53.200;5.792;2023-11-21T10:25:29;10.63;;;8.05;;
53309;SDS011;39197;53.200;5.792;2023-11-21T10:27:59;9.48;;;8.23;;
53309;SDS011;39197;53.200;5.792;2023-11-21T10:30:36;10.40;;;7.97;;
53309;SDS011;39197;53.200;5.792;2023-11-21T10:33:03;11.05;;;8.70;;
53309;SDS011;39197;53.200;5.792;2023-11-21T10:38:12;10.65;;;8.60;;
53309;SDS011;39197;53.200;5.792;2023-11-21T10:40:39;12.07;;;9.00;;
53309;SDS011;39197;53.200;5.792;2023-11-21T10:43:11;13.13;;;10.18;;
53309;SDS011;39197;53.200;5.792;2023-11-21T10:45:40;11.30;;;9.45;;
53309;SDS011;39197;53.200;5.792;2023-11-21T10:48:13;10.27;;;8.50;;
53309;SDS011;39197;53.200;5.792;2023-11-21T10:50:43;11.00;;;8.38;;
53309;SDS011;39197;53.200;5.792;2023-11-21T10:53:11;9.63;;;8.63;;
53309;SDS011;39197;53.200;5.792;2023-11-21T10:55:37;9.02;;;7.10;;
53309;SDS011;39197;53.200;5.792;2023-11-21T10:58:04;9.77;;;8.10;;
53309;SDS011;39197;53.200;5.792;2023-11-21T11:00:31;10.25;;;8.52;;
53309;SDS011;39197;53.200;5.792;2023-11-21T11:02:58;9.57;;;8.18;;
53309;SDS011;39197;53.200;5.792;2023-11-21T11:05:26;8.40;;;7.35;;
53309;SDS011;39197;53.200;5.792;2023-11-21T11:08:07;11.27;;;7.95;;
53309;SDS011;39197;53.200;5.792;2023-11-21T11:10:34;6.72;;;5.85;;
53309;SDS011;39197;53.200;5.792;2023-11-21T11:13:01;8.18;;;6.30;;
53309;SDS011;39197;53.200;5.792;2023-11-21T11:15:27;9.35;;;7.45;;
53309;SDS011;39197;53.200;5.792;2023-11-21T11:17:53;6.95;;;5.93;;
53309;SDS011;39197;53.200;5.792;2023-11-21T11:20:23;8.32;;;7.45;;
53309;SDS011;39197;53.200;5.792;2023-11-21T11:28:57;10.25;;;8.50;;
53309;SDS011;39197;53.200;5.792;2023-11-21T11:31:37;6.88;;;5.32;;
53309;SDS011;39197;53.200;5.792;2023-11-21T11:34:26;8.90;;;6.90;;
53309;SDS011;39197;53.200;5.792;2023-11-21T11:37:07;7.78;;;6.97;;
53309;SDS011;39197;53.200;5.792;2023-11-21T11:42:03;7.38;;;6.00;;
53309;SDS011;39197;53.200;5.792;2023-11-21T11:47:15;8.07;;;5.22;;
53309;SDS011;39197;53.200;5.792;2023-11-21T11:52:42;6.03;;;5.28;;
53309;SDS011;39197;53.200;5.792;2023-11-21T11:55:13;6.13;;;4.70;;
53309;SDS011;39197;53.200;5.792;2023-11-21T11:57:43;4.82;;;4.28;;
53309;SDS011;39197;53.200;5.792;2023-11-21T12:00:22;10.07;;;8.43;;
53309;SDS011;39197;53.200;5.792;2023-11-21T12:03:00;12.23;;;9.18;;
53309;SDS011;39197;53.200;5.792;2023-11-21T12:05:30;5.53;;;4.78;;
53309;SDS011;39197;53.200;5.792;2023-11-21T12:08:04;8.98;;;5.82;;
53309;SDS011;39197;53.200;5.792;2023-11-21T12:10:32;4.63;;;3.70;;
53309;SDS011;39197;53.200;5.792;2023-11-21T12:13:03;4.60;;;3.70;;
53309;SDS011;39197;53.200;5.792;2023-11-21T12:15:32;4.70;;;3.03;;
53309;SDS011;39197;53.200;5.792;2023-11-21T12:18:00;5.22;;;3.83;;
53309;SDS011;39197;53.200;5.792;2023-11-21T12:20:26;4.47;;;3.90;;
53309;SDS011;39197;53.200;5.792;2023-11-21T12:22:56;5.60;;;3.20;;
53309;SDS011;39197;53.200;5.792;2023-11-21T12:25:26;7.93;;;5.00;;
53309;SDS011;39197;53.200;5.792;2023-11-21T12:27:57;5.28;;;3.22;;
53309;SDS011;39197;53.200;5.792;2023-11-21T12:30:25;4.28;;;3.88;;
53309;SDS011;39197;53.200;5.792;2023-11-21T12:32:57;3.92;;;3.53;;
53309;SDS011;39197;53.200;5.792;2023-11-21T12:35:24;5.20;;;4.20;;
53309;SDS011;39197;53.200;5.792;2023-11-21T12:37:52;6.05;;;4.00;;
53309;SDS011;39197;53.200;5.792;2023-11-21T12:40:19;4.97;;;4.35;;
53309;SDS011;39197;53.200;5.792;2023-11-21T12:42:48;4.38;;;3.78;;
53309;SDS011;39197;53.200;5.792;2023-11-21T12:45:19;6.43;;;4.38;;
53309;SDS011;39197;53.200;5.792;2023-11-21T12:50:24;8.32;;;6.10;;
53309;SDS011;39197;53.200;5.792;2023-11-21T12:52:54;7.25;;;3.63;;
53309;SDS011;39197;53.200;5.792;2023-11-21T12:55:23;4.47;;;3.35;;
53309;SDS011;39197;53.200;5.792;2023-11-21T12:57:50;6.40;;;3.58;;
53309;SDS011;39197;53.200;5.792;2023-11-21T13:00:19;4.93;;;4.10;;
53309;SDS011;39197;53.200;5.792;2023-11-21T13:02:55;6.13;;;3.40;;
53309;SDS011;39197;53.200;5.792;2023-11-21T13:07:56;5.97;;;4.78;;
53309;SDS011;39197;53.200;5.792;2023-11-21T13:10:23;8.35;;;4.57;;
53309;SDS011;39197;53.200;5.792;2023-11-21T13:12:52;6.65;;;5.15;;
53309;SDS011;39197;53.200;5.792;2023-11-21T13:15:18;9.10;;;5.50;;
53309;SDS011;39197;53.200;5.792;2023-11-21T13:17:44;9.93;;;7.20;;
53309;SDS011;39197;53.200;5.792;2023-11-21T13:20:11;6.63;;;3.95;;
53309;SDS011;39197;53.200;5.792;2023-11-21T13:22:53;6.13;;;4.22;;
53309;SDS011;39197;53.200;5.792;2023-11-21T13:25:24;5.47;;;4.35;;
53309;SDS011;39197;53.200;5.792;2023-11-21T13:27:54;8.35;;;6.28;;
53309;SDS011;39197;53.200;5.792;2023-11-21T13:30:20;9.88;;;7.00;;
53309;SDS011;39197;53.200;5.792;2023-11-21T13:32:56;9.90;;;5.15;;
53309;SDS011;39197;53.200;5.792;2023-11-21T13:35:22;7.78;;;5.63;;
53309;SDS011;39197;53.200;5.792;2023-11-21T13:37:56;7.43;;;4.85;;
53309;SDS011;39197;53.200;5.792;2023-11-21T16:24:22;21.65;;;12.60;;
53309;SDS011;39197;53.200;5.792;2023-11-21T16:26:50;10.68;;;7.22;;
53309;SDS011;39197;53.200;5.792;2023-11-21T16:29:15;18.17;;;11.18;;
53309;SDS011;39197;53.200;5.792;2023-11-21T16:31:41;16.75;;;9.15;;
53309;SDS011;39197;53.200;5.792;2023-11-21T16:34:11;25.33;;;17.08;;
53309;SDS011;39197;53.200;5.792;2023-11-21T16:36:39;20.67;;;14.18;;
53309;SDS011;39197;53.200;5.792;2023-11-21T16:39:05;30.38;;;18.27;;
53309;SDS011;39197;53.200;5.792;2023-11-21T16:41:30;23.17;;;13.95;;
53309;SDS011;39197;53.200;5.792;2023-11-21T16:43:56;32.22;;;17.92;;
53309;SDS011;39197;53.200;5.792;2023-11-21T16:46:22;20.40;;;12.20;;
53309;SDS011;39197;53.200;5.792;2023-11-21T16:48:47;22.88;;;14.15;;
53309;SDS011;39197;53.200;5.792;2023-11-21T16:51:17;12.30;;;8.93;;
53309;SDS011;39197;53.200;5.792;2023-11-21T16:53:42;16.05;;;11.02;;
53309;SDS011;39197;53.200;5.792;2023-11-21T16:56:08;16.85;;;9.15;;
53309;SDS011;39197;53.200;5.792;2023-11-21T16:58:34;14.07;;;9.88;;
53309;SDS011;39197;53.200;5.792;2023-11-21T17:01:02;22.10;;;12.85;;
53309;SDS011;39197;53.200;5.792;2023-11-21T17:03:28;13.18;;;8.60;;
53309;SDS011;39197;53.200;5.792;2023-11-21T17:05:54;16.25;;;8.13;;
53309;SDS011;39197;53.200;5.792;2023-11-21T17:08:20;12.63;;;7.88;;
53309;SDS011;39197;53.200;5.792;2023-11-21T17:10:46;12.05;;;8.25;;
53309;SDS011;39197;53.200;5.792;2023-11-21T17:13:14;12.73;;;9.40;;
53309;SDS011;39197;53.200;5.792;2023-11-21T17:15:42;13.07;;;7.13;;
53309;SDS011;39197;53.200;5.792;2023-11-21T17:18:08;10.18;;;6.57;;
53309;SDS011;39197;53.200;5.792;2023-11-21T17:20:34;12.85;;;9.20;;
53309;SDS011;39197;53.200;5.792;2023-11-21T17:23:01;13.60;;;7.78;;
53309;SDS011;39197;53.200;5.792;2023-11-21T17:25:29;8.52;;;4.68;;
53309;SDS011;39197;53.200;5.792;2023-11-21T17:27:55;10.40;;;5.35;;
53309;SDS011;39197;53.200;5.792;2023-11-21T17:30:21;19.00;;;12.68;;
53309;SDS011;39197;53.200;5.792;2023-11-21T17:32:47;11.40;;;6.60;;
53309;SDS011;39197;53.200;5.792;2023-11-21T17:35:13;11.68;;;7.30;;
53309;SDS011;39197;53.200;5.792;2023-11-21T17:37:38;7.65;;;5.68;;
53309;SDS011;39197;53.200;5.792;2023-11-21T17:40:04;8.60;;;5.57;;
53309;SDS011;39197;53.200;5.792;2023-11-21T17:42:32;12.55;;;9.27;;